createdAt,value
2018-10-18T00:01:15.427Z,96900.63
2018-10-18T00:03:44.561Z,96894.95
2018-10-18T00:06:13.845Z,96902.91
2018-10-18T00:08:42.969Z,96900.33
2018-10-18T00:11:12.481Z,96900.58
2018-10-18T00:13:41.800Z,96899.82
2018-10-18T00:16:11.116Z,96899.30
2018-10-18T00:18:40.409Z,96901.35
2018-10-18T00:21:09.713Z,96904.19
2018-10-18T00:23:38.962Z,96893.62
2018-10-18T00:26:08.387Z,96897.99
2018-10-18T00:28:37.564Z,96900.05
2018-10-18T00:31:06.923Z,96894.89
2018-10-18T00:33:36.167Z,96896.16
2018-10-18T00:36:05.773Z,96896.42
2018-10-18T00:38:35.112Z,96888.44
2018-10-18T00:41:04.383Z,96890.50
2018-10-18T00:43:33.711Z,96891.53
2018-10-18T00:46:02.591Z,96883.02
2018-10-18T00:48:31.795Z,96884.80
2018-10-18T00:51:01.077Z,96884.27
2018-10-18T00:53:30.391Z,96878.59
2018-10-18T00:55:59.713Z,96880.41
2018-10-18T00:58:28.856Z,96876.02
2018-10-18T01:00:58.069Z,96880.39
2018-10-18T01:03:27.400Z,96879.33
2018-10-18T01:05:56.718Z,96879.60
2018-10-18T01:08:25.976Z,96882.39
2018-10-18T01:10:55.272Z,96874.20
2018-10-18T01:13:24.599Z,96874.19
2018-10-18T01:15:53.907Z,96875.41
2018-10-18T01:18:23.147Z,96872.58
2018-10-18T01:20:52.531Z,96870.00
2018-10-18T01:23:21.799Z,96873.59
2018-10-18T01:25:57.248Z,96872.58
2018-10-18T01:28:26.143Z,96872.30
2018-10-18T01:30:55.025Z,96872.82
2018-10-18T01:33:23.908Z,96872.82
2018-10-18T01:35:52.826Z,96874.87
2018-10-18T01:38:21.723Z,96876.39
2018-10-18T01:40:50.624Z,96870.72
2018-10-18T01:43:19.545Z,96867.08
2018-10-18T01:45:48.429Z,96863.75
2018-10-18T01:48:17.448Z,96869.13
2018-10-18T01:50:46.292Z,96865.53
2018-10-18T01:53:15.180Z,96872.50
2018-10-18T01:55:44.044Z,96868.09
2018-10-18T01:58:12.916Z,96868.30
2018-10-18T02:00:42.096Z,96866.78
2018-10-18T02:03:11.389Z,96862.67
2018-10-18T02:05:40.596Z,96859.80
2018-10-18T02:08:09.860Z,96859.02
2018-10-18T02:10:38.995Z,96863.36
2018-10-18T02:13:08.212Z,96865.42
2018-10-18T02:15:37.380Z,96863.14
2018-10-18T02:18:09.897Z,96860.08
2018-10-18T02:20:38.795Z,96864.78
2018-10-18T02:23:08.072Z,96856.84
2018-10-18T02:25:37.492Z,96855.50
2018-10-18T02:28:07.080Z,96859.54
2018-10-18T02:30:36.395Z,96862.07
2018-10-18T02:33:05.681Z,96863.36
2018-10-18T02:35:34.986Z,96867.20
2018-10-18T02:38:04.305Z,96865.39
2018-10-18T02:40:33.535Z,96868.69
2018-10-18T02:43:02.843Z,96860.75
2018-10-18T02:45:32.320Z,96860.47
2018-10-18T02:48:01.600Z,96857.88
2018-10-18T02:50:30.752Z,96854.05
2018-10-18T02:53:00.127Z,96857.92
2018-10-18T02:55:29.377Z,96853.02
2018-10-18T02:57:58.552Z,96851.78
2018-10-18T03:00:27.891Z,96852.00
2018-10-18T03:02:58.374Z,96858.42
2018-10-18T03:05:27.715Z,96857.63
2018-10-18T03:07:57.113Z,96867.16
2018-10-18T03:10:26.418Z,96864.84
2018-10-18T03:12:55.668Z,96865.23
2018-10-18T03:15:24.570Z,96866.27
2018-10-18T03:17:53.459Z,96868.23
2018-10-18T03:20:22.364Z,96866.42
2018-10-18T03:22:51.779Z,96863.03
2018-10-18T03:25:21.084Z,96871.22
2018-10-18T03:27:50.405Z,96869.17
2018-10-18T03:30:19.706Z,96869.41
2018-10-18T03:32:48.993Z,96876.64
2018-10-18T03:35:18.072Z,96878.16
2018-10-18T03:37:47.412Z,96871.50
2018-10-18T03:40:16.641Z,96877.64
2018-10-18T03:42:45.941Z,96876.85
2018-10-18T03:45:15.269Z,96879.64
2018-10-18T03:47:44.439Z,96878.35
2018-10-18T03:50:13.661Z,96883.20
2018-10-18T03:52:42.840Z,96881.42
2018-10-18T03:55:12.179Z,96879.09
2018-10-18T03:57:41.344Z,96879.06
2018-10-18T04:00:10.691Z,96883.17
2018-10-18T04:02:39.975Z,96878.30
2018-10-18T04:05:10.012Z,96880.06
2018-10-18T04:07:39.395Z,96878.22
2018-10-18T04:10:09.008Z,96874.38
2018-10-18T04:12:38.064Z,96877.13
2018-10-18T04:15:07.707Z,96877.73
2018-10-18T04:17:37.024Z,96878.44
2018-10-18T04:20:07.005Z,96886.63
2018-10-18T04:22:36.235Z,96884.61
2018-10-18T04:25:05.865Z,96878.73
2018-10-18T04:27:35.220Z,96873.89
2018-10-18T04:30:04.511Z,96878.46
2018-10-18T04:32:33.828Z,96871.06
2018-10-18T04:35:03.112Z,96876.98
2018-10-18T04:37:32.466Z,96873.16
2018-10-18T04:40:01.735Z,96875.46
2018-10-18T04:42:30.901Z,96875.41
2018-10-18T04:45:00.214Z,96880.27
2018-10-18T04:47:29.520Z,96877.97
2018-10-18T04:49:58.628Z,96882.87
2018-10-18T04:52:27.911Z,96881.61
2018-10-18T04:54:57.280Z,96880.86
2018-10-18T04:57:26.377Z,96875.20
2018-10-18T04:59:55.703Z,96873.66
2018-10-18T05:02:24.978Z,96879.81
2018-10-18T05:05:05.076Z,96885.73
2018-10-18T05:07:34.361Z,96893.42
2018-10-18T05:10:03.632Z,96889.55
2018-10-18T05:12:32.894Z,96891.03
2018-10-18T05:15:02.041Z,96889.55
2018-10-18T05:17:31.316Z,96894.94
2018-10-18T05:20:00.630Z,96897.71
2018-10-18T05:22:29.829Z,96896.69
2018-10-18T05:24:59.175Z,96901.33
2018-10-18T05:27:28.428Z,96898.50
2018-10-18T05:29:57.619Z,96901.81
2018-10-18T05:32:26.844Z,96901.78
2018-10-18T05:34:56.236Z,96906.42
2018-10-18T05:37:25.570Z,96916.45
2018-10-18T05:39:54.869Z,96915.67
2018-10-18T05:42:24.156Z,96914.65
2018-10-18T05:44:53.463Z,96914.71
2018-10-18T05:47:22.784Z,96918.03
2018-10-18T05:49:52.165Z,96922.58
2018-10-18T05:52:21.439Z,96923.86
2018-10-18T05:54:50.721Z,96923.37
2018-10-18T05:57:20.094Z,96928.23
2018-10-18T05:59:49.459Z,96934.16
2018-10-18T06:02:18.764Z,96939.36
2018-10-18T06:04:48.075Z,96943.70
2018-10-18T06:07:17.468Z,96941.33
2018-10-18T06:09:46.789Z,96946.23
2018-10-18T06:12:16.149Z,96947.34
2018-10-18T06:14:45.457Z,96952.75
2018-10-18T06:17:14.751Z,96957.52
2018-10-18T06:19:44.051Z,96949.84
2018-10-18T06:22:13.337Z,96958.10
2018-10-18T06:24:42.656Z,96959.45
2018-10-18T06:27:11.961Z,96961.84
2018-10-18T06:29:41.232Z,96959.09
2018-10-18T06:32:10.487Z,96960.72
2018-10-18T06:34:39.743Z,96971.09
2018-10-18T06:37:09.362Z,96970.09
2018-10-18T06:39:38.680Z,96975.35
2018-10-18T06:42:07.984Z,96966.22
2018-10-18T06:44:37.272Z,96970.39
2018-10-18T06:47:06.809Z,96971.23
2018-10-18T06:49:36.128Z,96974.61
2018-10-18T06:52:05.608Z,96974.39
2018-10-18T06:54:34.911Z,96976.75
2018-10-18T06:57:04.216Z,96975.74
2018-10-18T06:59:33.517Z,96975.78
2018-10-18T07:02:02.871Z,96978.37
2018-10-18T07:04:32.159Z,96967.59
2018-10-18T07:07:01.406Z,96965.02
2018-10-18T07:09:30.748Z,96973.53
2018-10-18T07:12:00.342Z,96973.81
2018-10-18T07:14:29.584Z,96969.96
2018-10-18T07:16:58.787Z,96977.19
2018-10-18T07:19:28.080Z,96975.90
2018-10-18T07:21:57.408Z,96979.75
2018-10-18T07:24:26.688Z,96983.88
2018-10-18T07:26:56.128Z,96987.78
2018-10-18T07:29:25.468Z,96989.59
2018-10-18T07:31:54.767Z,96984.16
2018-10-18T07:34:24.051Z,96990.06
2018-10-18T07:36:53.292Z,96990.53
2018-10-18T07:39:22.464Z,96989.46
2018-10-18T07:41:51.670Z,96990.10
2018-10-18T07:44:20.864Z,97000.28
2018-10-18T07:46:50.155Z,96993.70
2018-10-18T07:49:19.486Z,96998.08
2018-10-18T07:51:48.785Z,96999.85
2018-10-18T07:54:18.164Z,97000.36
2018-10-18T07:56:47.468Z,96999.01
2018-10-18T07:59:16.789Z,97001.83
2018-10-18T08:01:46.071Z,97001.45
2018-10-18T08:04:15.387Z,96999.34
2018-10-18T08:06:44.799Z,96999.91
2018-10-18T08:09:14.840Z,97001.02
2018-10-18T08:11:44.088Z,96999.11
2018-10-18T08:14:13.408Z,96999.02
2018-10-18T08:16:42.763Z,96987.01
2018-10-18T08:19:12.075Z,96989.22
2018-10-18T08:21:41.300Z,96993.05
2018-10-18T08:24:10.599Z,96991.75
2018-10-18T08:26:39.892Z,96994.57
2018-10-18T08:29:09.293Z,96993.62
2018-10-18T08:31:38.693Z,96997.39
2018-10-18T08:34:07.921Z,97003.20
2018-10-18T08:36:37.352Z,97002.12
2018-10-18T08:39:09.207Z,97007.15
2018-10-18T08:41:38.533Z,97001.85
2018-10-18T08:44:07.877Z,97006.63
2018-10-18T08:46:37.161Z,97000.73
2018-10-18T08:49:06.716Z,97003.08
2018-10-18T08:51:36.000Z,97000.23
2018-10-18T08:54:05.361Z,97007.04
2018-10-18T08:56:34.607Z,97004.07
2018-10-18T08:59:03.870Z,97004.48
2018-10-18T09:01:33.087Z,97001.32
2018-10-18T09:04:02.271Z,97006.25
2018-10-18T09:06:31.557Z,97004.71
2018-10-18T09:09:01.038Z,97013.89
2018-10-18T09:11:30.396Z,97006.64
2018-10-18T09:13:59.685Z,97008.55
2018-10-18T09:16:28.948Z,97010.36
2018-10-18T09:18:58.248Z,97010.81
2018-10-18T09:21:27.555Z,97006.77
2018-10-18T09:23:56.879Z,97011.87
2018-10-18T09:26:26.162Z,97006.72
2018-10-18T09:28:55.444Z,97003.18
2018-10-18T09:31:24.663Z,97001.65
2018-10-18T09:33:53.885Z,97004.63
2018-10-18T09:36:23.160Z,97001.53
2018-10-18T09:38:52.560Z,97002.23
2018-10-18T09:41:22.320Z,97000.55
2018-10-18T09:43:55.640Z,96993.53
2018-10-18T09:46:24.647Z,97001.00
2018-10-18T09:48:53.651Z,96996.80
2018-10-18T09:51:22.699Z,96999.58
2018-10-18T09:53:51.688Z,96996.80
2018-10-18T09:56:20.760Z,96999.03
2018-10-18T09:58:49.731Z,96999.34
2018-10-18T10:01:23.913Z,97004.02
2018-10-18T10:03:53.016Z,96998.41
2018-10-18T10:06:22.050Z,96989.39
2018-10-18T10:08:51.069Z,96990.05
2018-10-18T10:11:20.032Z,96990.50
2018-10-18T10:13:49.091Z,96991.88
2018-10-18T10:16:18.582Z,96994.38
2018-10-18T10:18:47.848Z,96986.30
2018-10-18T10:21:17.008Z,96989.37
2018-10-18T10:23:46.407Z,96984.72
2018-10-18T10:26:15.403Z,96979.06
2018-10-18T10:28:44.385Z,96977.66
2018-10-18T10:31:13.455Z,96969.98
2018-10-18T10:33:42.468Z,96974.50
2018-10-18T10:36:11.484Z,96969.38
2018-10-18T10:38:40.574Z,96970.95
2018-10-18T10:41:09.600Z,96973.30
2018-10-18T10:43:38.559Z,96972.59
2018-10-18T10:46:07.625Z,96966.92
2018-10-18T10:48:36.565Z,96962.16
2018-10-18T10:51:05.686Z,96971.50
2018-10-18T10:53:34.683Z,96970.06
2018-10-18T10:56:03.790Z,96961.93
2018-10-18T10:58:32.804Z,96959.71
2018-10-18T11:01:07.597Z,96957.12
2018-10-18T11:03:37.006Z,96961.55
2018-10-18T11:06:06.131Z,96953.60
2018-10-18T11:08:35.588Z,96950.56
2018-10-18T11:11:04.831Z,96943.36
2018-10-18T11:13:33.811Z,96942.70
2018-10-18T11:16:03.747Z,96942.05
2018-10-18T11:18:33.924Z,96934.06
2018-10-18T11:21:03.860Z,96936.30
2018-10-18T11:23:33.388Z,96934.46
2018-10-18T11:26:02.478Z,96938.48
2018-10-18T11:28:31.516Z,96931.92
2018-10-18T11:31:00.601Z,96933.25
2018-10-18T11:33:29.747Z,96930.83
2018-10-18T11:35:58.878Z,96925.98
2018-10-18T11:38:27.872Z,96929.06
2018-10-18T11:40:56.890Z,96928.61
2018-10-18T11:43:25.927Z,96927.19
2018-10-18T11:45:54.908Z,96924.64
2018-10-18T11:48:23.985Z,96923.36
2018-10-18T11:50:53.008Z,96922.72
2018-10-18T11:53:22.030Z,96924.31
2018-10-18T11:55:51.044Z,96922.30
2018-10-18T11:58:20.106Z,96921.47
2018-10-18T12:00:49.115Z,96917.17
2018-10-18T12:03:18.092Z,96921.42
2018-10-18T12:05:47.171Z,96917.59
2018-10-18T12:08:16.176Z,96918.16
2018-10-18T12:10:45.200Z,96911.80
2018-10-18T12:13:14.243Z,96910.36
2018-10-18T12:15:43.231Z,96910.02
2018-10-18T12:18:12.252Z,96903.81
2018-10-18T12:20:41.263Z,96897.36
2018-10-18T12:23:10.306Z,96899.38
2018-10-18T12:25:39.276Z,96899.63
2018-10-18T12:28:08.310Z,96893.27
2018-10-18T12:30:37.325Z,96891.61
2018-10-18T12:33:06.393Z,96893.52
2018-10-18T12:35:35.411Z,96892.73
2018-10-18T12:38:04.403Z,96891.65
2018-10-18T12:40:33.525Z,96889.52
2018-10-18T12:43:02.452Z,96888.96
2018-10-18T12:45:31.492Z,96892.44
2018-10-18T12:48:00.575Z,96886.53
2018-10-18T12:50:29.565Z,96885.72
2018-10-18T12:52:58.552Z,96888.66
2018-10-18T12:55:27.564Z,96884.74
2018-10-18T12:57:56.580Z,96891.65
2018-10-18T13:00:25.576Z,96890.54
2018-10-18T13:02:54.598Z,96887.80
2018-10-18T13:05:23.618Z,96888.86
2018-10-18T13:07:52.649Z,96889.44
2018-10-18T13:10:21.712Z,96895.59
2018-10-18T13:12:50.736Z,96886.13
2018-10-18T13:15:19.735Z,96885.58
2018-10-18T13:17:49.108Z,96882.92
2018-10-18T13:20:18.168Z,96889.50
2018-10-18T13:22:47.137Z,96885.00
2018-10-18T13:25:16.165Z,96882.81
2018-10-18T13:27:45.172Z,96876.36
2018-10-18T13:30:14.271Z,96880.50
2018-10-18T13:32:43.235Z,96868.91
2018-10-18T13:35:12.306Z,96871.94
2018-10-18T13:37:41.310Z,96877.17
2018-10-18T13:40:10.336Z,96878.77
2018-10-18T13:42:39.352Z,96880.02
2018-10-18T13:45:08.720Z,96877.02
2018-10-18T13:47:37.792Z,96880.16
2018-10-18T13:50:07.453Z,96878.73
2018-10-18T13:52:37.162Z,96878.84
2018-10-18T13:55:06.842Z,96881.30
2018-10-18T13:57:35.898Z,96877.52
2018-10-18T14:00:29.158Z,96874.34
2018-10-18T14:02:58.253Z,96877.93
2018-10-18T14:05:27.817Z,96874.57
2018-10-18T14:07:57.339Z,96875.13
2018-10-18T14:10:26.337Z,96875.67
2018-10-18T14:12:55.461Z,96874.67
2018-10-18T14:15:24.459Z,96872.30
2018-10-18T14:17:53.504Z,96876.09
2018-10-18T14:20:22.449Z,96880.81
2018-10-18T14:22:51.445Z,96882.77
2018-10-18T14:25:20.460Z,96874.98
2018-10-18T14:27:49.523Z,96875.70
2018-10-18T14:30:18.681Z,96877.58
2018-10-18T14:32:47.639Z,96874.61
2018-10-18T14:35:16.745Z,96874.28
2018-10-18T14:37:45.680Z,96875.92
2018-10-18T14:40:14.749Z,96877.88
2018-10-18T14:42:44.008Z,96875.45
2018-10-18T14:45:12.932Z,96866.48
2018-10-18T14:47:42.038Z,96871.34
2018-10-18T14:50:13.174Z,96869.17
2018-10-18T14:52:42.440Z,96871.67
2018-10-18T14:55:11.462Z,96879.15
2018-10-18T14:57:40.918Z,96880.66
2018-10-18T15:00:11.653Z,96879.69
2018-10-18T15:02:40.711Z,96885.48
2018-10-18T15:05:10.888Z,96880.99
2018-10-18T15:07:40.472Z,96881.09
2018-10-18T15:10:13.032Z,96877.59
2018-10-18T15:12:42.409Z,96881.45
2018-10-18T15:15:12.904Z,96879.45
2018-10-18T15:17:42.305Z,96880.83
2018-10-18T15:20:12.295Z,96879.61
2018-10-18T15:22:42.111Z,96889.70
2018-10-18T15:25:12.089Z,96883.97
2018-10-18T15:27:41.932Z,96886.38
2018-10-18T15:30:11.643Z,96889.70
2018-10-18T15:32:40.705Z,96887.90
2018-10-18T15:35:10.974Z,96887.66
2018-10-18T15:37:40.570Z,96888.78
2018-10-18T15:40:09.929Z,96891.84
2018-10-18T15:42:38.944Z,96895.17
2018-10-18T15:45:08.679Z,96885.41
2018-10-18T15:47:37.882Z,96898.21
2018-10-18T15:50:08.212Z,96894.70
2018-10-18T15:52:37.217Z,96895.75
2018-10-18T15:55:06.708Z,96896.06
2018-10-18T15:57:35.678Z,96899.54
2018-10-18T16:00:04.988Z,96898.51
2018-10-18T16:02:33.994Z,96909.09
2018-10-18T16:05:03.099Z,96911.34
2018-10-18T16:07:32.121Z,96911.88
2018-10-18T16:10:01.120Z,96918.49
2018-10-18T16:12:30.137Z,96922.93
2018-10-18T16:14:59.121Z,96925.30
2018-10-18T16:17:28.121Z,96929.80
2018-10-18T16:20:00.085Z,96929.18
2018-10-18T16:22:29.101Z,96929.98
2018-10-18T16:24:58.125Z,96938.45
2018-10-18T16:27:27.145Z,96948.45
2018-10-18T16:29:56.116Z,96947.65
2018-10-18T16:32:25.147Z,96950.02
2018-10-18T16:34:54.193Z,96956.34
2018-10-18T16:37:23.173Z,96966.01
2018-10-18T16:39:52.269Z,96963.05
2018-10-18T16:42:21.257Z,96976.76
2018-10-18T16:44:50.233Z,96974.45
2018-10-18T16:47:19.208Z,96978.54
2018-10-18T16:49:48.229Z,96973.88
2018-10-18T16:52:17.383Z,96981.70
2018-10-18T16:54:46.364Z,96979.86
2018-10-18T16:57:15.399Z,96983.58
2018-10-18T16:59:44.412Z,96983.81
2018-10-18T17:02:13.412Z,96981.98
2018-10-18T17:04:42.479Z,96992.40
2018-10-18T17:07:11.540Z,96988.55
2018-10-18T17:09:40.542Z,97000.03
2018-10-18T17:12:09.611Z,97001.27
2018-10-18T17:14:38.591Z,97001.77
2018-10-18T17:17:07.583Z,97006.88
2018-10-18T17:19:36.626Z,97010.95
2018-10-18T17:22:05.753Z,97013.75
2018-10-18T17:24:34.787Z,97013.83
2018-10-18T17:27:03.930Z,97021.03
2018-10-18T17:29:32.914Z,97022.38
2018-10-18T17:32:02.008Z,97017.41
2018-10-18T17:34:30.944Z,97024.42
2018-10-18T17:37:00.887Z,97017.80
2018-10-18T17:39:29.896Z,97023.08
2018-10-18T17:41:58.979Z,97013.03
2018-10-18T17:44:28.103Z,97011.69
2018-10-18T17:46:57.141Z,97012.75
2018-10-18T17:49:26.176Z,97014.56
2018-10-18T17:51:55.341Z,97014.04
2018-10-18T17:54:24.337Z,97012.42
2018-10-18T17:56:53.336Z,97015.54
2018-10-18T17:59:22.325Z,97014.91
2018-10-18T18:01:51.374Z,97020.75
2018-10-18T18:04:20.355Z,97022.08
2018-10-18T18:06:49.436Z,97027.38
2018-10-18T18:09:18.437Z,97026.81
2018-10-18T18:11:47.449Z,97026.33
2018-10-18T18:14:16.466Z,97031.08
2018-10-18T18:16:45.465Z,97031.14
2018-10-18T18:19:14.449Z,97044.42
2018-10-18T18:21:43.450Z,97044.86
2018-10-18T18:24:12.476Z,97048.09
2018-10-18T18:26:45.409Z,97051.81
2018-10-18T18:29:10.486Z,97051.86
2018-10-18T18:31:39.724Z,97051.98
2018-10-18T18:34:08.642Z,97054.14
2018-10-18T18:36:37.538Z,97053.63
2018-10-18T18:39:08.745Z,97054.80
2018-10-18T18:41:37.944Z,97052.88
2018-10-18T18:44:06.888Z,97062.36
2018-10-18T18:46:35.791Z,97063.94
2018-10-18T18:49:04.757Z,97063.77
2018-10-18T18:51:33.712Z,97066.88
2018-10-18T18:54:02.583Z,97066.84
2018-10-18T18:56:31.502Z,97067.13
2018-10-18T18:59:00.406Z,97068.00
2018-10-18T19:01:29.319Z,97069.08
2018-10-18T19:03:58.232Z,97076.42
2018-10-18T19:06:27.123Z,97068.19
2018-10-18T19:08:56.054Z,97072.91
2018-10-18T19:11:24.987Z,97078.33
2018-10-18T19:13:53.897Z,97073.20
2018-10-18T19:16:23.140Z,97076.36
2018-10-18T19:18:52.147Z,97081.53
2018-10-18T19:21:21.060Z,97073.06
2018-10-18T19:23:49.993Z,97086.08
2018-10-18T19:26:19.092Z,97080.98
2018-10-18T19:28:48.085Z,97079.44
2018-10-18T19:31:16.994Z,97078.77
2018-10-18T19:33:45.923Z,97081.47
2018-10-18T19:36:14.841Z,97081.02
2018-10-18T19:38:43.771Z,97087.24
2018-10-18T19:41:12.752Z,97084.67
2018-10-18T19:43:41.728Z,97089.37
2018-10-18T19:46:10.713Z,97092.37
2018-10-18T19:48:39.643Z,97090.66
2018-10-18T19:51:08.580Z,97093.85
2018-10-18T19:53:37.475Z,97093.06
2018-10-18T19:56:06.560Z,97093.70
2018-10-18T19:58:35.487Z,97100.91
2018-10-18T20:01:04.451Z,97107.42
2018-10-18T20:03:33.368Z,97097.67
2018-10-18T20:06:02.276Z,97097.28
2018-10-18T20:08:31.177Z,97101.81
2018-10-18T20:11:00.081Z,97099.91
2018-10-18T20:13:29.037Z,97098.75
2018-10-18T20:15:57.963Z,97096.22
2018-10-18T20:18:26.924Z,97101.69
2018-10-18T20:20:55.797Z,97103.91
2018-10-18T20:23:24.735Z,97103.73
2018-10-18T20:25:53.853Z,97108.47
2018-10-18T20:28:22.647Z,97109.53
2018-10-18T20:30:51.572Z,97109.89
2018-10-18T20:33:20.576Z,97106.25
2018-10-18T20:35:49.485Z,97113.02
2018-10-18T20:38:18.359Z,97109.48
2018-10-18T20:40:47.263Z,97106.91
2018-10-18T20:43:16.151Z,97115.45
2018-10-18T20:45:45.156Z,97113.41
2018-10-18T20:48:14.170Z,97111.27
2018-10-18T20:50:43.028Z,97116.15
2018-10-18T20:53:11.983Z,97111.83
2018-10-18T20:55:40.837Z,97117.99
2018-10-18T20:58:09.803Z,97116.95
2018-10-18T21:00:38.790Z,97117.99
2018-10-18T21:03:07.789Z,97119.33
2018-10-18T21:05:36.683Z,97117.57
2018-10-18T21:08:05.592Z,97117.03
2018-10-18T21:10:34.484Z,97125.83
2018-10-18T21:13:03.458Z,97130.53
2018-10-18T21:15:32.307Z,97136.70
2018-10-18T21:18:01.218Z,97129.48
2018-10-18T21:20:30.132Z,97127.73
2018-10-18T21:22:59.056Z,97125.14
2018-10-18T21:25:27.981Z,97123.09
2018-10-18T21:27:56.951Z,97128.23
2018-10-18T21:30:25.823Z,97124.38
2018-10-18T21:32:54.751Z,97126.16
2018-10-18T21:35:23.626Z,97124.12
2018-10-18T21:37:52.512Z,97135.22
2018-10-18T21:40:21.391Z,97130.63
2018-10-18T21:42:50.264Z,97121.85
2018-10-18T21:45:19.313Z,97131.92
2018-10-18T21:47:48.244Z,97133.45
2018-10-18T21:50:17.139Z,97135.00
2018-10-18T21:52:46.023Z,97132.17
2018-10-18T21:55:14.943Z,97136.30
2018-10-18T21:57:43.812Z,97127.80
2018-10-18T22:00:16.809Z,97131.18
2018-10-18T22:02:46.620Z,97128.85
2018-10-18T22:05:16.029Z,97123.18
2018-10-18T22:07:45.133Z,97132.72
2018-10-18T22:10:14.508Z,97132.20
2018-10-18T22:12:43.400Z,97133.77
2018-10-18T22:15:12.362Z,97129.11
2018-10-18T22:17:41.227Z,97134.80
2018-10-18T22:20:10.701Z,97126.02
2018-10-18T22:22:39.599Z,97124.20
2018-10-18T22:25:09.409Z,97123.95
2018-10-18T22:27:38.382Z,97125.50
2018-10-18T22:30:08.288Z,97129.36
2018-10-18T22:32:37.222Z,97118.28
2018-10-18T22:35:06.211Z,97115.69
2018-10-18T22:37:35.110Z,97115.17
2018-10-18T22:40:04.195Z,97122.65
2018-10-18T22:42:33.184Z,97116.22
2018-10-18T22:45:02.211Z,97121.35
2018-10-18T22:47:31.104Z,97113.34
2018-10-18T22:49:59.995Z,97116.20
2018-10-18T22:52:28.909Z,97119.03
2018-10-18T22:54:57.807Z,97116.45
2018-10-18T22:57:26.692Z,97121.89
2018-10-18T22:59:55.609Z,97120.34
2018-10-18T23:02:24.534Z,97117.23
2018-10-18T23:04:53.503Z,97119.31
2018-10-18T23:07:22.388Z,97119.31
2018-10-18T23:09:51.329Z,97111.84
2018-10-18T23:12:20.248Z,97105.90
2018-10-18T23:14:49.136Z,97107.44
2018-10-18T23:17:18.000Z,97107.16
2018-10-18T23:19:46.929Z,97105.63
2018-10-18T23:22:15.826Z,97104.59
2018-10-18T23:24:44.745Z,97101.77
2018-10-18T23:27:12.716Z,97100.47
2018-10-18T23:29:41.628Z,97105.89
2018-10-18T23:32:10.551Z,97097.88
2018-10-18T23:34:39.440Z,97101.99
2018-10-18T23:37:08.345Z,97106.84
2018-10-18T23:39:37.242Z,97106.06
2018-10-18T23:42:06.148Z,97116.91
2018-10-18T23:44:35.045Z,97114.81
2018-10-18T23:47:04.022Z,97107.83
2018-10-18T23:49:32.935Z,97112.73
2018-10-18T23:52:01.838Z,97110.38
2018-10-18T23:54:30.769Z,97111.63
2018-10-18T23:57:00.183Z,97116.27
2018-10-18T23:59:29.429Z,97113.76
